sensor_id;sensor_type;location;lat;lon;timestamp;P1;durP1;ratioP1;P2;durP2;ratioP2
11092;SDS011;5600;50.864;6.102;2023-07-20T00:00:30;58.92;;;6.03;;
11092;SDS011;5600;50.864;6.102;2023-07-20T00:03:31;75.80;;;6.45;;
11092;SDS011;5600;50.864;6.102;2023-07-20T00:06:32;58.15;;;5.82;;
11092;SDS011;5600;50.864;6.102;2023-07-20T00:09:33;84.05;;;7.13;;
11092;SDS011;5600;50.864;6.102;2023-07-20T00:12:34;72.38;;;7.38;;
11092;SDS011;5600;50.864;6.102;2023-07-20T00:15:35;80.35;;;6.82;;
11092;SDS011;5600;50.864;6.102;2023-07-20T00:18:36;74.13;;;6.38;;
11092;SDS011;5600;50.864;6.102;2023-07-20T00:21:37;90.97;;;6.82;;
11092;SDS011;5600;50.864;6.102;2023-07-20T00:24:40;65.55;;;5.78;;
11092;SDS011;5600;50.864;6.102;2023-07-20T00:27:41;81.03;;;6.80;;
11092;SDS011;5600;50.864;6.102;2023-07-20T00:30:42;69.65;;;6.25;;
11092;SDS011;5600;50.864;6.102;2023-07-20T00:33:44;66.68;;;7.05;;
11092;SDS011;5600;50.864;6.102;2023-07-20T00:36:45;81.50;;;7.25;;
11092;SDS011;5600;50.864;6.102;2023-07-20T00:39:46;80.13;;;6.90;;
11092;SDS011;5600;50.864;6.102;2023-07-20T00:42:47;87.28;;;7.03;;
11092;SDS011;5600;50.864;6.102;2023-07-20T00:45:48;82.47;;;7.40;;
11092;SDS011;5600;50.864;6.102;2023-07-20T00:48:49;77.65;;;7.15;;
11092;SDS011;5600;50.864;6.102;2023-07-20T00:51:50;73.82;;;7.07;;
11092;SDS011;5600;50.864;6.102;2023-07-20T00:54:51;89.63;;;7.55;;
11092;SDS011;5600;50.864;6.102;2023-07-20T00:57:56;84.93;;;7.63;;
11092;SDS011;5600;50.864;6.102;2023-07-20T01:00:58;72.65;;;6.93;;
11092;SDS011;5600;50.864;6.102;2023-07-20T01:03:59;80.90;;;7.40;;
11092;SDS011;5600;50.864;6.102;2023-07-20T01:07:02;84.78;;;7.40;;
11092;SDS011;5600;50.864;6.102;2023-07-20T01:10:10;89.70;;;8.02;;
11092;SDS011;5600;50.864;6.102;2023-07-20T01:13:15;73.40;;;7.10;;
11092;SDS011;5600;50.864;6.102;2023-07-20T01:16:18;90.03;;;7.63;;
11092;SDS011;5600;50.864;6.102;2023-07-20T01:19:19;68.43;;;6.90;;
11092;SDS011;5600;50.864;6.102;2023-07-20T01:29:22;88.93;;;7.90;;
11092;SDS011;5600;50.864;6.102;2023-07-20T01:32:24;68.70;;;6.75;;
11092;SDS011;5600;50.864;6.102;2023-07-20T01:35:28;63.78;;;6.45;;
11092;SDS011;5600;50.864;6.102;2023-07-20T01:38:30;61.15;;;6.28;;
11092;SDS011;5600;50.864;6.102;2023-07-20T01:41:31;101.88;;;8.25;;
11092;SDS011;5600;50.864;6.102;2023-07-20T01:44:33;68.65;;;6.38;;
11092;SDS011;5600;50.864;6.102;2023-07-20T01:47:34;55.30;;;6.20;;
11092;SDS011;5600;50.864;6.102;2023-07-20T01:50:35;58.72;;;6.57;;
11092;SDS011;5600;50.864;6.102;2023-07-20T01:53:36;77.97;;;6.88;;
11092;SDS011;5600;50.864;6.102;2023-07-20T01:56:37;51.92;;;5.60;;
11092;SDS011;5600;50.864;6.102;2023-07-20T01:59:38;73.67;;;6.40;;
11092;SDS011;5600;50.864;6.102;2023-07-20T02:02:38;78.53;;;7.07;;
11092;SDS011;5600;50.864;6.102;2023-07-20T02:05:39;76.78;;;6.57;;
11092;SDS011;5600;50.864;6.102;2023-07-20T02:08:40;65.57;;;6.00;;
11092;SDS011;5600;50.864;6.102;2023-07-20T02:11:41;75.50;;;6.25;;
11092;SDS011;5600;50.864;6.102;2023-07-20T02:14:42;63.83;;;5.85;;
11092;SDS011;5600;50.864;6.102;2023-07-20T02:17:43;90.65;;;6.90;;
11092;SDS011;5600;50.864;6.102;2023-07-20T02:20:46;66.87;;;6.07;;
11092;SDS011;5600;50.864;6.102;2023-07-20T02:23:47;79.93;;;6.70;;
11092;SDS011;5600;50.864;6.102;2023-07-20T02:26:48;78.07;;;6.38;;
11092;SDS011;5600;50.864;6.102;2023-07-20T02:29:48;72.40;;;5.97;;
11092;SDS011;5600;50.864;6.102;2023-07-20T02:32:50;94.43;;;7.10;;
11092;SDS011;5600;50.864;6.102;2023-07-20T02:35:51;95.63;;;7.38;;
11092;SDS011;5600;50.864;6.102;2023-07-20T02:38:52;80.57;;;6.57;;
11092;SDS011;5600;50.864;6.102;2023-07-20T02:41:53;71.10;;;6.43;;
11092;SDS011;5600;50.864;6.102;2023-07-20T02:44:54;69.55;;;6.20;;
11092;SDS011;5600;50.864;6.102;2023-07-20T02:47:55;83.95;;;6.80;;
11092;SDS011;5600;50.864;6.102;2023-07-20T02:50:55;60.72;;;5.70;;
11092;SDS011;5600;50.864;6.102;2023-07-20T02:53:56;101.13;;;7.43;;
11092;SDS011;5600;50.864;6.102;2023-07-20T02:56:57;79.25;;;6.32;;
11092;SDS011;5600;50.864;6.102;2023-07-20T02:59:57;70.15;;;6.18;;
11092;SDS011;5600;50.864;6.102;2023-07-20T03:02:58;92.72;;;7.63;;
11092;SDS011;5600;50.864;6.102;2023-07-20T03:05:59;73.82;;;6.15;;
11092;SDS011;5600;50.864;6.102;2023-07-20T03:09:01;95.03;;;7.10;;
11092;SDS011;5600;50.864;6.102;2023-07-20T03:12:02;81.18;;;6.43;;
11092;SDS011;5600;50.864;6.102;2023-07-20T03:15:05;76.82;;;6.57;;
11092;SDS011;5600;50.864;6.102;2023-07-20T03:18:06;69.70;;;6.20;;
11092;SDS011;5600;50.864;6.102;2023-07-20T03:21:08;66.72;;;5.68;;
11092;SDS011;5600;50.864;6.102;2023-07-20T03:24:11;77.78;;;6.60;;
11092;SDS011;5600;50.864;6.102;2023-07-20T03:27:12;77.18;;;6.70;;
11092;SDS011;5600;50.864;6.102;2023-07-20T03:30:13;69.95;;;6.40;;
11092;SDS011;5600;50.864;6.102;2023-07-20T03:33:14;83.18;;;7.00;;
11092;SDS011;5600;50.864;6.102;2023-07-20T03:36:15;73.22;;;6.63;;
11092;SDS011;5600;50.864;6.102;2023-07-20T03:39:15;88.15;;;7.65;;
11092;SDS011;5600;50.864;6.102;2023-07-20T03:42:16;63.85;;;6.18;;
11092;SDS011;5600;50.864;6.102;2023-07-20T03:45:17;69.57;;;6.68;;
11092;SDS011;5600;50.864;6.102;2023-07-20T03:48:18;68.93;;;6.28;;
11092;SDS011;5600;50.864;6.102;2023-07-20T03:51:20;76.72;;;6.72;;
11092;SDS011;5600;50.864;6.102;2023-07-20T03:54:21;74.03;;;6.95;;
11092;SDS011;5600;50.864;6.102;2023-07-20T03:57:21;69.85;;;6.72;;
11092;SDS011;5600;50.864;6.102;2023-07-20T04:00:22;81.00;;;7.18;;
11092;SDS011;5600;50.864;6.102;2023-07-20T04:03:23;105.20;;;8.43;;
11092;SDS011;5600;50.864;6.102;2023-07-20T04:06:26;67.80;;;6.72;;
11092;SDS011;5600;50.864;6.102;2023-07-20T04:09:27;65.20;;;6.78;;
11092;SDS011;5600;50.864;6.102;2023-07-20T04:12:28;65.75;;;6.22;;
11092;SDS011;5600;50.864;6.102;2023-07-20T04:15:28;89.38;;;7.50;;
11092;SDS011;5600;50.864;6.102;2023-07-20T04:18:29;79.00;;;7.53;;
11092;SDS011;5600;50.864;6.102;2023-07-20T04:21:30;95.57;;;8.23;;
11092;SDS011;5600;50.864;6.102;2023-07-20T04:24:31;61.45;;;6.18;;
11092;SDS011;5600;50.864;6.102;2023-07-20T04:27:31;68.78;;;7.00;;
11092;SDS011;5600;50.864;6.102;2023-07-20T04:30:32;74.30;;;7.32;;
11092;SDS011;5600;50.864;6.102;2023-07-20T04:33:33;86.18;;;7.88;;
11092;SDS011;5600;50.864;6.102;2023-07-20T04:36:34;77.72;;;7.88;;
11092;SDS011;5600;50.864;6.102;2023-07-20T04:39:35;67.68;;;6.88;;
11092;SDS011;5600;50.864;6.102;2023-07-20T04:42:41;57.35;;;6.70;;
11092;SDS011;5600;50.864;6.102;2023-07-20T04:45:42;73.45;;;6.78;;
11092;SDS011;5600;50.864;6.102;2023-07-20T04:48:43;93.07;;;8.25;;
11092;SDS011;5600;50.864;6.102;2023-07-20T04:51:45;76.43;;;7.55;;
11092;SDS011;5600;50.864;6.102;2023-07-20T04:54:46;78.00;;;7.50;;
11092;SDS011;5600;50.864;6.102;2023-07-20T04:57:47;84.53;;;7.75;;
11092;SDS011;5600;50.864;6.102;2023-07-20T05:00:49;71.13;;;7.32;;
11092;SDS011;5600;50.864;6.102;2023-07-20T05:03:50;95.18;;;8.57;;
11092;SDS011;5600;50.864;6.102;2023-07-20T05:06:51;81.95;;;8.43;;
11092;SDS011;5600;50.864;6.102;2023-07-20T05:09:52;90.63;;;8.63;;
11092;SDS011;5600;50.864;6.102;2023-07-20T05:12:53;112.88;;;9.45;;
11092;SDS011;5600;50.864;6.102;2023-07-20T05:15:54;84.70;;;8.48;;
11092;SDS011;5600;50.864;6.102;2023-07-20T05:18:55;84.10;;;8.65;;
11092;SDS011;5600;50.864;6.102;2023-07-20T05:21:57;85.20;;;8.77;;
11092;SDS011;5600;50.864;6.102;2023-07-20T05:24:58;81.38;;;8.68;;
11092;SDS011;5600;50.864;6.102;2023-07-20T05:27:59;96.55;;;8.85;;
11092;SDS011;5600;50.864;6.102;2023-07-20T05:31:02;84.18;;;9.20;;
11092;SDS011;5600;50.864;6.102;2023-07-20T05:34:03;133.07;;;10.90;;
11092;SDS011;5600;50.864;6.102;2023-07-20T05:37:04;89.35;;;8.85;;
11092;SDS011;5600;50.864;6.102;2023-07-20T05:40:06;75.10;;;8.98;;
11092;SDS011;5600;50.864;6.102;2023-07-20T05:43:08;81.55;;;8.65;;
11092;SDS011;5600;50.864;6.102;2023-07-20T05:46:08;58.38;;;7.05;;
11092;SDS011;5600;50.864;6.102;2023-07-20T05:49:10;87.32;;;9.18;;
11092;SDS011;5600;50.864;6.102;2023-07-20T05:52:10;79.50;;;9.10;;
11092;SDS011;5600;50.864;6.102;2023-07-20T05:55:11;76.47;;;9.20;;
11092;SDS011;5600;50.864;6.102;2023-07-20T05:58:12;91.78;;;10.23;;
11092;SDS011;5600;50.864;6.102;2023-07-20T06:01:13;99.30;;;10.73;;
11092;SDS011;5600;50.864;6.102;2023-07-20T06:04:13;84.25;;;9.23;;
11092;SDS011;5600;50.864;6.102;2023-07-20T06:07:14;89.22;;;10.05;;
11092;SDS011;5600;50.864;6.102;2023-07-20T06:10:15;88.15;;;10.57;;
11092;SDS011;5600;50.864;6.102;2023-07-20T06:13:16;105.93;;;11.93;;
11092;SDS011;5600;50.864;6.102;2023-07-20T06:16:16;66.88;;;8.45;;
11092;SDS011;5600;50.864;6.102;2023-07-20T06:19:17;110.07;;;11.30;;
11092;SDS011;5600;50.864;6.102;2023-07-20T06:22:18;77.18;;;9.95;;
11092;SDS011;5600;50.864;6.102;2023-07-20T06:25:19;92.63;;;10.95;;
11092;SDS011;5600;50.864;6.102;2023-07-20T06:28:21;100.93;;;11.40;;
11092;SDS011;5600;50.864;6.102;2023-07-20T06:31:21;56.42;;;9.57;;
11092;SDS011;5600;50.864;6.102;2023-07-20T06:34:22;79.75;;;11.27;;
11092;SDS011;5600;50.864;6.102;2023-07-20T06:37:24;81.38;;;11.35;;
11092;SDS011;5600;50.864;6.102;2023-07-20T06:40:25;97.13;;;11.57;;
11092;SDS011;5600;50.864;6.102;2023-07-20T06:43:26;82.13;;;11.20;;
11092;SDS011;5600;50.864;6.102;2023-07-20T06:46:26;100.57;;;12.38;;
11092;SDS011;5600;50.864;6.102;2023-07-20T06:49:27;67.03;;;11.32;;
11092;SDS011;5600;50.864;6.102;2023-07-20T06:52:28;82.18;;;12.38;;
11092;SDS011;5600;50.864;6.102;2023-07-20T06:55:29;93.20;;;13.50;;
11092;SDS011;5600;50.864;6.102;2023-07-20T06:58:30;43.22;;;11.15;;
11092;SDS011;5600;50.864;6.102;2023-07-20T07:01:30;80.80;;;12.25;;
11092;SDS011;5600;50.864;6.102;2023-07-20T07:04:31;101.13;;;12.60;;
11092;SDS011;5600;50.864;6.102;2023-07-20T07:07:32;67.88;;;11.27;;
11092;SDS011;5600;50.864;6.102;2023-07-20T07:10:34;71.10;;;11.02;;
11092;SDS011;5600;50.864;6.102;2023-07-20T07:13:36;63.50;;;10.60;;
11092;SDS011;5600;50.864;6.102;2023-07-20T07:16:36;75.88;;;12.38;;
11092;SDS011;5600;50.864;6.102;2023-07-20T07:19:37;69.60;;;9.98;;
11092;SDS011;5600;50.864;6.102;2023-07-20T07:22:38;70.55;;;9.70;;
11092;SDS011;5600;50.864;6.102;2023-07-20T07:25:39;66.25;;;9.23;;
11092;SDS011;5600;50.864;6.102;2023-07-20T07:28:40;75.10;;;9.40;;
11092;SDS011;5600;50.864;6.102;2023-07-20T07:31:40;52.40;;;8.50;;
11092;SDS011;5600;50.864;6.102;2023-07-20T07:34:43;68.75;;;8.52;;
11092;SDS011;5600;50.864;6.102;2023-07-20T07:37:46;55.97;;;7.88;;
11092;SDS011;5600;50.864;6.102;2023-07-20T07:40:47;55.92;;;7.95;;
11092;SDS011;5600;50.864;6.102;2023-07-20T07:43:48;59.55;;;6.78;;
11092;SDS011;5600;50.864;6.102;2023-07-20T07:46:48;81.68;;;9.07;;
11092;SDS011;5600;50.864;6.102;2023-07-20T07:49:49;60.63;;;8.55;;
11092;SDS011;5600;50.864;6.102;2023-07-20T07:52:50;83.85;;;9.43;;
11092;SDS011;5600;50.864;6.102;2023-07-20T07:55:51;68.60;;;7.85;;
11092;SDS011;5600;50.864;6.102;2023-07-20T07:58:52;50.85;;;6.68;;
11092;SDS011;5600;50.864;6.102;2023-07-20T08:01:53;58.50;;;7.45;;
11092;SDS011;5600;50.864;6.102;2023-07-20T08:04:53;70.60;;;6.65;;
11092;SDS011;5600;50.864;6.102;2023-07-20T08:07:54;67.38;;;7.07;;
11092;SDS011;5600;50.864;6.102;2023-07-20T08:10:55;57.90;;;6.03;;
11092;SDS011;5600;50.864;6.102;2023-07-20T08:13:56;51.50;;;5.78;;
11092;SDS011;5600;50.864;6.102;2023-07-20T08:16:57;58.10;;;5.85;;
11092;SDS011;5600;50.864;6.102;2023-07-20T08:19:58;61.13;;;6.28;;
11092;SDS011;5600;50.864;6.102;2023-07-20T08:22:59;71.80;;;5.93;;
11092;SDS011;5600;50.864;6.102;2023-07-20T08:26:00;37.72;;;4.50;;
11092;SDS011;5600;50.864;6.102;2023-07-20T08:29:01;62.03;;;5.72;;
11092;SDS011;5600;50.864;6.102;2023-07-20T08:32:02;84.18;;;6.50;;
11092;SDS011;5600;50.864;6.102;2023-07-20T08:35:04;58.53;;;4.65;;
11092;SDS011;5600;50.864;6.102;2023-07-20T08:38:06;39.17;;;3.83;;
11092;SDS011;5600;50.864;6.102;2023-07-20T08:41:08;53.20;;;5.15;;
11092;SDS011;5600;50.864;6.102;2023-07-20T08:44:10;77.35;;;6.20;;
11092;SDS011;5600;50.864;6.102;2023-07-20T08:47:11;62.35;;;5.05;;
11092;SDS011;5600;50.864;6.102;2023-07-20T08:50:13;51.35;;;4.35;;
11092;SDS011;5600;50.864;6.102;2023-07-20T08:53:16;71.15;;;5.40;;
11092;SDS011;5600;50.864;6.102;2023-07-20T08:56:17;50.88;;;4.55;;
11092;SDS011;5600;50.864;6.102;2023-07-20T08:59:19;81.40;;;6.40;;
11092;SDS011;5600;50.864;6.102;2023-07-20T09:02:23;69.10;;;5.20;;
11092;SDS011;5600;50.864;6.102;2023-07-20T09:05:27;70.25;;;5.47;;
11092;SDS011;5600;50.864;6.102;2023-07-20T09:08:27;82.95;;;6.25;;
11092;SDS011;5600;50.864;6.102;2023-07-20T09:11:28;57.20;;;4.60;;
11092;SDS011;5600;50.864;6.102;2023-07-20T09:14:29;76.50;;;5.70;;
11092;SDS011;5600;50.864;6.102;2023-07-20T09:17:32;97.38;;;6.80;;
11092;SDS011;5600;50.864;6.102;2023-07-20T09:20:33;78.43;;;6.10;;
11092;SDS011;5600;50.864;6.102;2023-07-20T09:23:37;82.03;;;6.55;;
11092;SDS011;5600;50.864;6.102;2023-07-20T09:26:43;71.93;;;5.68;;
11092;SDS011;5600;50.864;6.102;2023-07-20T09:29:48;74.93;;;5.60;;
11092;SDS011;5600;50.864;6.102;2023-07-20T09:32:50;76.32;;;5.88;;
11092;SDS011;5600;50.864;6.102;2023-07-20T09:35:50;66.80;;;5.43;;
11092;SDS011;5600;50.864;6.102;2023-07-20T09:38:51;53.85;;;4.90;;
11092;SDS011;5600;50.864;6.102;2023-07-20T09:41:52;93.03;;;6.40;;
11092;SDS011;5600;50.864;6.102;2023-07-20T09:44:53;77.13;;;5.63;;
11092;SDS011;5600;50.864;6.102;2023-07-20T09:47:57;134.27;;;8.57;;
11092;SDS011;5600;50.864;6.102;2023-07-20T09:51:04;64.75;;;4.90;;
11092;SDS011;5600;50.864;6.102;2023-07-20T09:54:07;74.25;;;5.47;;
11092;SDS011;5600;50.864;6.102;2023-07-20T09:57:09;81.13;;;5.82;;
11092;SDS011;5600;50.864;6.102;2023-07-20T10:00:12;77.05;;;5.70;;
11092;SDS011;5600;50.864;6.102;2023-07-20T10:03:14;72.13;;;6.15;;
11092;SDS011;5600;50.864;6.102;2023-07-20T10:06:20;77.85;;;6.30;;
11092;SDS011;5600;50.864;6.102;2023-07-20T10:09:24;64.20;;;5.15;;
11092;SDS011;5600;50.864;6.102;2023-07-20T10:12:26;73.82;;;6.20;;
11092;SDS011;5600;50.864;6.102;2023-07-20T10:18:38;70.97;;;5.78;;
11092;SDS011;5600;50.864;6.102;2023-07-20T10:22:15;72.90;;;5.47;;
11092;SDS011;5600;50.864;6.102;2023-07-20T10:25:24;59.72;;;4.97;;
11092;SDS011;5600;50.864;6.102;2023-07-20T10:28:25;74.88;;;5.82;;
11092;SDS011;5600;50.864;6.102;2023-07-20T10:31:26;79.82;;;6.00;;
11092;SDS011;5600;50.864;6.102;2023-07-20T10:34:28;75.57;;;5.72;;
11092;SDS011;5600;50.864;6.102;2023-07-20T10:37:52;83.90;;;5.97;;
11092;SDS011;5600;50.864;6.102;2023-07-20T10:40:54;62.58;;;5.13;;
11092;SDS011;5600;50.864;6.102;2023-07-20T10:44:02;93.32;;;6.75;;
11092;SDS011;5600;50.864;6.102;2023-07-20T10:47:11;72.50;;;5.65;;
11092;SDS011;5600;50.864;6.102;2023-07-20T10:50:12;68.88;;;5.50;;
11092;SDS011;5600;50.864;6.102;2023-07-20T10:53:17;70.45;;;5.78;;
11092;SDS011;5600;50.864;6.102;2023-07-20T10:56:19;66.40;;;5.45;;
11092;SDS011;5600;50.864;6.102;2023-07-20T11:02:24;74.72;;;6.10;;
11092;SDS011;5600;50.864;6.102;2023-07-20T11:08:37;96.07;;;6.75;;
11092;SDS011;5600;50.864;6.102;2023-07-20T11:14:43;79.55;;;6.00;;
11092;SDS011;5600;50.864;6.102;2023-07-20T11:18:01;79.85;;;6.35;;
11092;SDS011;5600;50.864;6.102;2023-07-20T11:21:12;102.47;;;7.35;;
11092;SDS011;5600;50.864;6.102;2023-07-20T11:24:14;71.53;;;5.70;;
11092;SDS011;5600;50.864;6.102;2023-07-20T11:27:15;68.75;;;5.55;;
11092;SDS011;5600;50.864;6.102;2023-07-20T11:30:16;69.18;;;5.45;;
11092;SDS011;5600;50.864;6.102;2023-07-20T11:33:17;69.72;;;6.72;;
11092;SDS011;5600;50.864;6.102;2023-07-20T11:36:17;48.60;;;4.63;;
11092;SDS011;5600;50.864;6.102;2023-07-20T11:39:19;79.03;;;5.97;;
11092;SDS011;5600;50.864;6.102;2023-07-20T11:42:21;78.18;;;6.28;;
11092;SDS011;5600;50.864;6.102;2023-07-20T11:45:22;88.47;;;6.50;;
11092;SDS011;5600;50.864;6.102;2023-07-20T11:48:23;60.17;;;5.03;;
11092;SDS011;5600;50.864;6.102;2023-07-20T11:51:24;53.58;;;4.50;;
11092;SDS011;5600;50.864;6.102;2023-07-20T11:54:26;62.80;;;4.93;;
11092;SDS011;5600;50.864;6.102;2023-07-20T11:57:27;70.28;;;5.32;;
11092;SDS011;5600;50.864;6.102;2023-07-20T12:00:28;67.97;;;5.28;;
11092;SDS011;5600;50.864;6.102;2023-07-20T12:03:29;95.65;;;6.53;;
11092;SDS011;5600;50.864;6.102;2023-07-20T12:06:30;66.32;;;4.97;;
11092;SDS011;5600;50.864;6.102;2023-07-20T12:09:32;75.90;;;5.32;;
11092;SDS011;5600;50.864;6.102;2023-07-20T12:12:34;57.17;;;4.28;;
11092;SDS011;5600;50.864;6.102;2023-07-20T12:15:37;104.28;;;6.85;;
11092;SDS011;5600;50.864;6.102;2023-07-20T12:18:38;84.47;;;5.97;;
11092;SDS011;5600;50.864;6.102;2023-07-20T12:21:39;77.68;;;5.60;;
11092;SDS011;5600;50.864;6.102;2023-07-20T12:24:42;100.18;;;6.47;;
11092;SDS011;5600;50.864;6.102;2023-07-20T12:27:44;83.13;;;5.60;;
11092;SDS011;5600;50.864;6.102;2023-07-20T12:30:45;113.00;;;7.05;;
11092;SDS011;5600;50.864;6.102;2023-07-20T12:33:46;66.07;;;4.90;;
11092;SDS011;5600;50.864;6.102;2023-07-20T12:36:47;79.00;;;5.50;;
11092;SDS011;5600;50.864;6.102;2023-07-20T12:39:48;81.30;;;5.35;;
11092;SDS011;5600;50.864;6.102;2023-07-20T12:42:48;82.00;;;5.70;;
11092;SDS011;5600;50.864;6.102;2023-07-20T12:45:49;153.32;;;9.02;;
11092;SDS011;5600;50.864;6.102;2023-07-20T12:48:50;66.90;;;4.93;;
11092;SDS011;5600;50.864;6.102;2023-07-20T12:51:51;70.50;;;4.88;;
11092;SDS011;5600;50.864;6.102;2023-07-20T12:54:52;73.88;;;5.13;;
11092;SDS011;5600;50.864;6.102;2023-07-20T12:57:52;69.13;;;4.70;;
11092;SDS011;5600;50.864;6.102;2023-07-20T13:00:53;92.22;;;5.97;;
11092;SDS011;5600;50.864;6.102;2023-07-20T13:03:54;102.00;;;6.07;;
11092;SDS011;5600;50.864;6.102;2023-07-20T13:06:55;113.28;;;6.68;;
11092;SDS011;5600;50.864;6.102;2023-07-20T13:09:59;67.28;;;4.45;;
11092;SDS011;5600;50.864;6.102;2023-07-20T13:13:00;52.38;;;3.83;;
11092;SDS011;5600;50.864;6.102;2023-07-20T13:16:01;69.38;;;4.55;;
11092;SDS011;5600;50.864;6.102;2023-07-20T13:19:02;58.45;;;4.07;;
11092;SDS011;5600;50.864;6.102;2023-07-20T13:22:02;72.20;;;4.80;;
11092;SDS011;5600;50.864;6.102;2023-07-20T13:25:04;79.43;;;5.07;;
11092;SDS011;5600;50.864;6.102;2023-07-20T13:28:06;84.47;;;5.45;;
11092;SDS011;5600;50.864;6.102;2023-07-20T13:31:07;99.90;;;6.38;;
11092;SDS011;5600;50.864;6.102;2023-07-20T13:34:10;57.78;;;3.97;;
11092;SDS011;5600;50.864;6.102;2023-07-20T13:37:11;66.28;;;4.50;;
11092;SDS011;5600;50.864;6.102;2023-07-20T13:40:14;78.68;;;5.00;;
11092;SDS011;5600;50.864;6.102;2023-07-20T13:43:17;92.05;;;5.72;;
11092;SDS011;5600;50.864;6.102;2023-07-20T13:46:17;76.28;;;5.05;;
11092;SDS011;5600;50.864;6.102;2023-07-20T13:49:18;65.72;;;4.53;;
11092;SDS011;5600;50.864;6.102;2023-07-20T13:52:19;72.18;;;4.88;;
11092;SDS011;5600;50.864;6.102;2023-07-20T13:55:19;79.55;;;4.97;;
11092;SDS011;5600;50.864;6.102;2023-07-20T13:58:20;73.00;;;4.80;;
11092;SDS011;5600;50.864;6.102;2023-07-20T14:01:21;80.68;;;5.28;;
11092;SDS011;5600;50.864;6.102;2023-07-20T14:04:23;133.35;;;7.70;;
11092;SDS011;5600;50.864;6.102;2023-07-20T14:07:24;91.80;;;5.60;;
11092;SDS011;5600;50.864;6.102;2023-07-20T14:10:24;60.80;;;4.00;;
11092;SDS011;5600;50.864;6.102;2023-07-20T14:13:25;100.07;;;6.40;;
11092;SDS011;5600;50.864;6.102;2023-07-20T14:16:26;74.25;;;4.85;;
11092;SDS011;5600;50.864;6.102;2023-07-20T14:19:27;60.58;;;4.10;;
11092;SDS011;5600;50.864;6.102;2023-07-20T14:22:27;72.00;;;4.78;;
11092;SDS011;5600;50.864;6.102;2023-07-20T14:25:28;87.88;;;5.57;;
11092;SDS011;5600;50.864;6.102;2023-07-20T14:28:29;114.30;;;6.60;;
11092;SDS011;5600;50.864;6.102;2023-07-20T14:31:29;87.97;;;5.45;;
11092;SDS011;5600;50.864;6.102;2023-07-20T14:34:30;80.40;;;5.28;;
11092;SDS011;5600;50.864;6.102;2023-07-20T14:37:31;95.53;;;6.07;;
11092;SDS011;5600;50.864;6.102;2023-07-20T14:40:31;85.55;;;5.40;;
11092;SDS011;5600;50.864;6.102;2023-07-20T14:43:32;123.82;;;7.03;;
11092;SDS011;5600;50.864;6.102;2023-07-20T14:46:33;83.70;;;5.32;;
11092;SDS011;5600;50.864;6.102;2023-07-20T14:49:34;108.30;;;6.32;;
11092;SDS011;5600;50.864;6.102;2023-07-20T14:52:34;96.63;;;5.97;;
11092;SDS011;5600;50.864;6.102;2023-07-20T14:55:35;100.07;;;5.97;;
11092;SDS011;5600;50.864;6.102;2023-07-20T14:58:36;68.20;;;4.30;;
11092;SDS011;5600;50.864;6.102;2023-07-20T15:01:37;67.45;;;4.90;;
11092;SDS011;5600;50.864;6.102;2023-07-20T15:04:39;69.35;;;4.93;;
11092;SDS011;5600;50.864;6.102;2023-07-20T15:07:46;72.18;;;4.78;;
11092;SDS011;5600;50.864;6.102;2023-07-20T15:10:47;72.72;;;5.00;;
11092;SDS011;5600;50.864;6.102;2023-07-20T15:13:47;97.35;;;6.07;;
11092;SDS011;5600;50.864;6.102;2023-07-20T15:16:48;71.57;;;4.97;;
11092;SDS011;5600;50.864;6.102;2023-07-20T15:19:49;83.85;;;5.63;;
11092;SDS011;5600;50.864;6.102;2023-07-20T15:22:49;85.90;;;5.88;;
11092;SDS011;5600;50.864;6.102;2023-07-20T15:25:50;65.82;;;4.45;;
11092;SDS011;5600;50.864;6.102;2023-07-20T15:28:51;92.75;;;5.68;;
11092;SDS011;5600;50.864;6.102;2023-07-20T15:31:51;97.03;;;6.13;;
11092;SDS011;5600;50.864;6.102;2023-07-20T15:34:52;103.97;;;6.53;;
11092;SDS011;5600;50.864;6.102;2023-07-20T15:37:53;90.75;;;5.78;;
11092;SDS011;5600;50.864;6.102;2023-07-20T15:40:54;108.80;;;6.78;;
11092;SDS011;5600;50.864;6.102;2023-07-20T15:43:56;116.40;;;6.93;;
11092;SDS011;5600;50.864;6.102;2023-07-20T15:46:57;88.25;;;5.60;;
11092;SDS011;5600;50.864;6.102;2023-07-20T15:49:58;68.82;;;4.88;;
11092;SDS011;5600;50.864;6.102;2023-07-20T15:52:59;82.43;;;5.55;;
11092;SDS011;5600;50.864;6.102;2023-07-20T15:56:00;112.25;;;6.88;;
11092;SDS011;5600;50.864;6.102;2023-07-20T15:59:00;96.40;;;6.07;;
11092;SDS011;5600;50.864;6.102;2023-07-20T16:02:01;96.57;;;6.15;;
11092;SDS011;5600;50.864;6.102;2023-07-20T16:05:04;211.48;;;11.18;;
11092;SDS011;5600;50.864;6.102;2023-07-20T16:08:05;62.13;;;4.57;;
11092;SDS011;5600;50.864;6.102;2023-07-20T16:11:06;74.40;;;5.05;;
11092;SDS011;5600;50.864;6.102;2023-07-20T16:14:06;111.97;;;6.82;;
11092;SDS011;5600;50.864;6.102;2023-07-20T16:17:07;101.63;;;6.38;;
11092;SDS011;5600;50.864;6.102;2023-07-20T16:20:08;78.55;;;5.25;;
11092;SDS011;5600;50.864;6.102;2023-07-20T16:23:09;86.68;;;5.75;;
11092;SDS011;5600;50.864;6.102;2023-07-20T16:26:10;99.32;;;6.03;;
11092;SDS011;5600;50.864;6.102;2023-07-20T16:29:11;80.45;;;5.47;;
11092;SDS011;5600;50.864;6.102;2023-07-20T16:32:12;176.55;;;9.57;;
11092;SDS011;5600;50.864;6.102;2023-07-20T16:35:13;57.92;;;4.22;;
11092;SDS011;5600;50.864;6.102;2023-07-20T16:38:14;94.68;;;6.00;;
11092;SDS011;5600;50.864;6.102;2023-07-20T16:41:14;75.28;;;5.07;;
11092;SDS011;5600;50.864;6.102;2023-07-20T16:44:15;69.45;;;4.93;;
11092;SDS011;5600;50.864;6.102;2023-07-20T16:47:17;69.13;;;5.05;;
11092;SDS011;5600;50.864;6.102;2023-07-20T16:50:19;68.30;;;4.60;;
11092;SDS011;5600;50.864;6.102;2023-07-20T16:53:19;86.43;;;5.85;;
11092;SDS011;5600;50.864;6.102;2023-07-20T16:56:20;69.25;;;4.82;;
11092;SDS011;5600;50.864;6.102;2023-07-20T16:59:21;79.10;;;5.10;;
11092;SDS011;5600;50.864;6.102;2023-07-20T17:02:22;76.57;;;5.10;;
11092;SDS011;5600;50.864;6.102;2023-07-20T17:05:23;71.50;;;5.55;;
11092;SDS011;5600;50.864;6.102;2023-07-20T17:08:23;90.68;;;5.85;;
11092;SDS011;5600;50.864;6.102;2023-07-20T17:11:24;111.07;;;6.72;;
11092;SDS011;5600;50.864;6.102;2023-07-20T17:14:25;50.72;;;4.00;;
11092;SDS011;5600;50.864;6.102;2023-07-20T17:17:26;184.57;;;9.77;;
11092;SDS011;5600;50.864;6.102;2023-07-20T17:20:27;82.00;;;5.30;;
11092;SDS011;5600;50.864;6.102;2023-07-20T17:23:28;69.82;;;4.68;;
11092;SDS011;5600;50.864;6.102;2023-07-20T17:26:31;57.00;;;4.43;;
11092;SDS011;5600;50.864;6.102;2023-07-20T17:29:32;71.05;;;4.95;;
11092;SDS011;5600;50.864;6.102;2023-07-20T17:32:33;71.72;;;4.72;;
11092;SDS011;5600;50.864;6.102;2023-07-20T17:35:35;89.70;;;5.50;;
11092;SDS011;5600;50.864;6.102;2023-07-20T17:38:36;88.40;;;5.47;;
11092;SDS011;5600;50.864;6.102;2023-07-20T17:41:36;67.65;;;4.53;;
11092;SDS011;5600;50.864;6.102;2023-07-20T17:44:37;69.90;;;4.68;;
11092;SDS011;5600;50.864;6.102;2023-07-20T17:47:38;81.95;;;5.32;;
11092;SDS011;5600;50.864;6.102;2023-07-20T17:50:39;73.22;;;4.95;;
11092;SDS011;5600;50.864;6.102;2023-07-20T17:53:40;75.18;;;5.00;;
11092;SDS011;5600;50.864;6.102;2023-07-20T17:56:40;57.70;;;4.85;;
11092;SDS011;5600;50.864;6.102;2023-07-20T17:59:41;72.25;;;5.03;;
11092;SDS011;5600;50.864;6.102;2023-07-20T18:02:42;56.95;;;4.03;;
11092;SDS011;5600;50.864;6.102;2023-07-20T18:05:44;64.90;;;4.57;;
11092;SDS011;5600;50.864;6.102;2023-07-20T18:08:44;70.88;;;4.88;;
11092;SDS011;5600;50.864;6.102;2023-07-20T18:11:45;78.43;;;4.97;;
11092;SDS011;5600;50.864;6.102;2023-07-20T18:14:46;71.57;;;4.45;;
11092;SDS011;5600;50.864;6.102;2023-07-20T18:17:47;68.70;;;4.63;;
11092;SDS011;5600;50.864;6.102;2023-07-20T18:20:47;93.53;;;5.35;;
11092;SDS011;5600;50.864;6.102;2023-07-20T18:23:48;46.88;;;3.33;;
11092;SDS011;5600;50.864;6.102;2023-07-20T18:26:51;60.78;;;4.13;;
11092;SDS011;5600;50.864;6.102;2023-07-20T18:29:53;72.20;;;4.65;;